sensor_id;sensor_type;location;lat;lon;timestamp;pressure;altitude;pressure_sealevel;temperature;humidity
39301;BME280;25019;42.626;23.380;2024-01-16T00:00:56;92879.03;;;0.96;100.00
39301;BME280;25019;42.626;23.380;2024-01-16T00:03:22;92870.63;;;0.94;100.00
39301;BME280;25019;42.626;23.380;2024-01-16T00:05:48;92860.47;;;0.74;100.00
39301;BME280;25019;42.626;23.380;2024-01-16T00:08:14;92960.63;;;1.53;100.00
39301;BME280;25019;42.626;23.380;2024-01-16T00:10:40;92927.03;;;1.14;100.00
39301;BME280;25019;42.626;23.380;2024-01-16T00:13:06;92978.00;;;1.47;100.00
39301;BME280;25019;42.626;23.380;2024-01-16T00:15:32;92980.50;;;1.42;100.00
39301;BME280;25019;42.626;23.380;2024-01-16T00:17:57;92898.34;;;0.83;100.00
39301;BME280;25019;42.626;23.380;2024-01-16T00:20:23;92973.47;;;1.42;100.00
39301;BME280;25019;42.626;23.380;2024-01-16T00:22:51;92965.59;;;1.42;100.00
39301;BME280;25019;42.626;23.380;2024-01-16T00:25:17;92960.72;;;1.46;100.00
39301;BME280;25019;42.626;23.380;2024-01-16T00:27:45;92964.34;;;1.45;100.00
39301;BME280;25019;42.626;23.380;2024-01-16T00:30:12;92898.50;;;1.12;100.00
39301;BME280;25019;42.626;23.380;2024-01-16T00:32:39;92946.16;;;1.26;100.00
39301;BME280;25019;42.626;23.380;2024-01-16T00:35:05;92992.56;;;1.55;100.00
39301;BME280;25019;42.626;23.380;2024-01-16T00:37:30;92977.88;;;1.54;100.00
39301;BME280;25019;42.626;23.380;2024-01-16T00:39:56;92974.03;;;1.44;98.96
39301;BME280;25019;42.626;23.380;2024-01-16T00:42:22;92916.78;;;1.00;98.92
39301;BME280;25019;42.626;23.380;2024-01-16T00:44:47;92967.22;;;1.55;99.01
39301;BME280;25019;42.626;23.380;2024-01-16T00:47:13;93002.38;;;1.47;99.77
39301;BME280;25019;42.626;23.380;2024-01-16T00:49:39;92929.53;;;0.97;100.00
39301;BME280;25019;42.626;23.380;2024-01-16T00:52:05;92899.59;;;0.81;100.00
39301;BME280;25019;42.626;23.380;2024-01-16T00:54:32;93002.25;;;1.42;100.00
39301;BME280;25019;42.626;23.380;2024-01-16T00:56:57;92916.78;;;0.88;99.93
39301;BME280;25019;42.626;23.380;2024-01-16T00:59:25;93000.41;;;1.43;99.38
39301;BME280;25019;42.626;23.380;2024-01-16T01:01:51;92961.97;;;1.31;99.05
39301;BME280;25019;42.626;23.380;2024-01-16T01:04:17;93034.94;;;1.63;99.13
39301;BME280;25019;42.626;23.380;2024-01-16T01:06:43;92934.97;;;1.07;99.11
39301;BME280;25019;42.626;23.380;2024-01-16T01:09:08;92921.31;;;1.05;98.61
39301;BME280;25019;42.626;23.380;2024-01-16T01:11:40;93007.38;;;1.61;99.03
39301;BME280;25019;42.626;23.380;2024-01-16T01:14:06;93015.13;;;1.79;98.53
39301;BME280;25019;42.626;23.380;2024-01-16T01:16:31;93027.06;;;1.87;97.94
39301;BME280;25019;42.626;23.380;2024-01-16T01:18:57;93002.59;;;1.82;98.75
39301;BME280;25019;42.626;23.380;2024-01-16T01:21:23;92980.53;;;1.66;97.76
39301;BME280;25019;42.626;23.380;2024-01-16T01:23:49;92882.34;;;1.03;97.61
39301;BME280;25019;42.626;23.380;2024-01-16T01:26:14;93021.47;;;1.95;98.68
39301;BME280;25019;42.626;23.380;2024-01-16T01:28:40;93049.03;;;1.98;98.61
39301;BME280;25019;42.626;23.380;2024-01-16T01:31:13;93009.41;;;1.83;98.54
39301;BME280;25019;42.626;23.380;2024-01-16T01:33:41;93017.06;;;1.96;98.22
39301;BME280;25019;42.626;23.380;2024-01-16T01:36:07;93010.91;;;2.02;98.34
39301;BME280;25019;42.626;23.380;2024-01-16T01:38:33;93036.38;;;2.19;98.84
39301;BME280;25019;42.626;23.380;2024-01-16T01:40:59;92983.13;;;1.89;99.00
39301;BME280;25019;42.626;23.380;2024-01-16T01:43:25;93015.53;;;2.24;98.12
39301;BME280;25019;42.626;23.380;2024-01-16T01:46:13;93035.03;;;2.28;98.25
39301;BME280;25019;42.626;23.380;2024-01-16T01:48:43;92884.28;;;1.32;99.17
39301;BME280;25019;42.626;23.380;2024-01-16T01:51:10;92924.66;;;1.60;100.00
39301;BME280;25019;42.626;23.380;2024-01-16T01:53:38;93020.31;;;2.27;100.00
39301;BME280;25019;42.626;23.380;2024-01-16T01:56:10;92945.47;;;1.78;99.92
39301;BME280;25019;42.626;23.380;2024-01-16T01:58:38;93041.97;;;2.34;100.00
39301;BME280;25019;42.626;23.380;2024-01-16T02:01:05;93017.69;;;2.27;100.00
39301;BME280;25019;42.626;23.380;2024-01-16T02:03:37;92943.06;;;1.77;100.00
39301;BME280;25019;42.626;23.380;2024-01-16T02:06:05;92902.00;;;1.66;100.00
39301;BME280;25019;42.626;23.380;2024-01-16T02:08:32;92912.34;;;1.72;100.00
39301;BME280;25019;42.626;23.380;2024-01-16T02:10:58;92957.81;;;2.07;100.00
39301;BME280;25019;42.626;23.380;2024-01-16T02:13:42;92966.25;;;2.09;100.00
39301;BME280;25019;42.626;23.380;2024-01-16T02:16:21;93046.47;;;2.51;100.00
39301;BME280;25019;42.626;23.380;2024-01-16T02:18:48;92922.25;;;1.70;100.00
39301;BME280;25019;42.626;23.380;2024-01-16T02:21:25;93040.00;;;2.42;100.00
39301;BME280;25019;42.626;23.380;2024-01-16T02:23:53;92963.88;;;1.84;100.00
39301;BME280;25019;42.626;23.380;2024-01-16T02:26:20;92941.25;;;1.77;100.00
39301;BME280;25019;42.626;23.380;2024-01-16T02:28:45;93033.75;;;2.19;100.00
39301;BME280;25019;42.626;23.380;2024-01-16T02:31:11;92983.94;;;1.78;100.00
39301;BME280;25019;42.626;23.380;2024-01-16T02:33:38;93028.41;;;2.25;100.00
39301;BME280;25019;42.626;23.380;2024-01-16T02:36:03;92985.94;;;2.00;100.00
39301;BME280;25019;42.626;23.380;2024-01-16T02:38:29;92983.00;;;2.08;100.00
39301;BME280;25019;42.626;23.380;2024-01-16T02:40:55;93061.41;;;2.62;100.00
39301;BME280;25019;42.626;23.380;2024-01-16T02:43:21;93022.22;;;2.44;100.00
39301;BME280;25019;42.626;23.380;2024-01-16T02:45:47;93048.91;;;2.81;100.00
39301;BME280;25019;42.626;23.380;2024-01-16T02:48:13;92932.44;;;2.07;100.00
39301;BME280;25019;42.626;23.380;2024-01-16T02:50:39;93090.81;;;2.93;100.00
39301;BME280;25019;42.626;23.380;2024-01-16T02:53:04;93057.00;;;2.80;100.00
39301;BME280;25019;42.626;23.380;2024-01-16T02:55:30;93035.84;;;2.58;100.00
39301;BME280;25019;42.626;23.380;2024-01-16T02:57:56;93096.22;;;2.75;100.00
39301;BME280;25019;42.626;23.380;2024-01-16T03:00:21;93118.19;;;2.97;100.00
39301;BME280;25019;42.626;23.380;2024-01-16T03:02:48;93105.31;;;2.96;100.00
39301;BME280;25019;42.626;23.380;2024-01-16T03:05:14;93144.16;;;3.11;100.00
39301;BME280;25019;42.626;23.380;2024-01-16T03:07:41;93158.16;;;3.17;100.00
39301;BME280;25019;42.626;23.380;2024-01-16T03:10:06;93077.88;;;2.75;100.00
39301;BME280;25019;42.626;23.380;2024-01-16T03:12:32;93149.16;;;3.12;100.00
39301;BME280;25019;42.626;23.380;2024-01-16T03:14:58;93131.06;;;2.99;100.00
39301;BME280;25019;42.626;23.380;2024-01-16T03:17:24;93165.00;;;3.18;100.00
39301;BME280;25019;42.626;23.380;2024-01-16T03:19:50;93127.88;;;2.97;100.00
39301;BME280;25019;42.626;23.380;2024-01-16T03:22:16;93188.94;;;3.33;100.00
39301;BME280;25019;42.626;23.380;2024-01-16T03:24:41;93170.59;;;3.21;100.00
39301;BME280;25019;42.626;23.380;2024-01-16T03:27:07;93128.25;;;2.89;100.00
39301;BME280;25019;42.626;23.380;2024-01-16T03:29:33;93071.34;;;2.48;100.00
39301;BME280;25019;42.626;23.380;2024-01-16T03:31:59;93217.31;;;3.36;100.00
39301;BME280;25019;42.626;23.380;2024-01-16T03:34:26;93124.19;;;2.69;100.00
39301;BME280;25019;42.626;23.380;2024-01-16T03:36:52;93135.25;;;2.71;100.00
39301;BME280;25019;42.626;23.380;2024-01-16T03:39:18;93166.00;;;2.76;100.00
39301;BME280;25019;42.626;23.380;2024-01-16T03:41:44;93134.81;;;2.50;100.00
39301;BME280;25019;42.626;23.380;2024-01-16T03:44:09;93198.16;;;2.59;100.00
39301;BME280;25019;42.626;23.380;2024-01-16T03:46:38;93196.31;;;2.48;100.00
39301;BME280;25019;42.626;23.380;2024-01-16T03:49:04;93200.53;;;2.49;100.00
39301;BME280;25019;42.626;23.380;2024-01-16T03:51:29;93265.63;;;2.76;100.00
39301;BME280;25019;42.626;23.380;2024-01-16T03:53:55;93193.66;;;2.12;100.00
39301;BME280;25019;42.626;23.380;2024-01-16T03:56:22;93282.94;;;2.53;100.00
39301;BME280;25019;42.626;23.380;2024-01-16T03:58:48;93266.13;;;2.18;100.00
39301;BME280;25019;42.626;23.380;2024-01-16T04:01:14;93233.03;;;1.93;100.00
39301;BME280;25019;42.626;23.380;2024-01-16T04:03:39;93239.16;;;1.87;100.00
39301;BME280;25019;42.626;23.380;2024-01-16T04:06:17;93237.66;;;1.79;100.00
39301;BME280;25019;42.626;23.380;2024-01-16T04:08:44;93225.88;;;1.70;100.00
39301;BME280;25019;42.626;23.380;2024-01-16T04:11:13;93239.91;;;1.76;100.00
39301;BME280;25019;42.626;23.380;2024-01-16T04:13:40;93334.34;;;2.23;100.00
39301;BME280;25019;42.626;23.380;2024-01-16T04:16:06;93340.56;;;2.10;100.00
39301;BME280;25019;42.626;23.380;2024-01-16T04:18:39;93349.38;;;1.98;100.00
39301;BME280;25019;42.626;23.380;2024-01-16T04:21:06;93264.69;;;1.24;100.00
39301;BME280;25019;42.626;23.380;2024-01-16T04:23:32;93290.25;;;1.22;100.00
39301;BME280;25019;42.626;23.380;2024-01-16T04:25:58;93319.91;;;1.34;100.00
39301;BME280;25019;42.626;23.380;2024-01-16T04:28:23;93353.94;;;1.53;100.00
39301;BME280;25019;42.626;23.380;2024-01-16T04:30:49;93344.72;;;1.51;100.00
39301;BME280;25019;42.626;23.380;2024-01-16T04:33:15;93341.72;;;1.47;100.00
39301;BME280;25019;42.626;23.380;2024-01-16T04:35:41;93355.88;;;1.58;100.00
39301;BME280;25019;42.626;23.380;2024-01-16T04:38:07;93186.63;;;0.47;100.00
39301;BME280;25019;42.626;23.380;2024-01-16T04:40:33;93274.31;;;1.05;100.00
39301;BME280;25019;42.626;23.380;2024-01-16T04:42:59;93353.50;;;1.56;100.00
39301;BME280;25019;42.626;23.380;2024-01-16T04:45:25;93235.22;;;0.73;100.00
39301;BME280;25019;42.626;23.380;2024-01-16T04:47:51;93345.56;;;1.44;100.00
39301;BME280;25019;42.626;23.380;2024-01-16T04:50:17;93346.66;;;1.37;100.00
39301;BME280;25019;42.626;23.380;2024-01-16T04:52:43;93303.22;;;0.92;100.00
39301;BME280;25019;42.626;23.380;2024-01-16T04:55:09;93298.50;;;0.82;100.00
39301;BME280;25019;42.626;23.380;2024-01-16T04:57:35;93335.78;;;0.96;100.00
39301;BME280;25019;42.626;23.380;2024-01-16T05:00:00;93275.06;;;0.43;100.00
39301;BME280;25019;42.626;23.380;2024-01-16T05:02:26;93357.47;;;0.96;100.00
39301;BME280;25019;42.626;23.380;2024-01-16T05:04:52;93387.59;;;1.06;100.00
39301;BME280;25019;42.626;23.380;2024-01-16T05:07:18;93336.19;;;0.67;100.00
39301;BME280;25019;42.626;23.380;2024-01-16T05:09:46;93411.16;;;0.99;100.00
39301;BME280;25019;42.626;23.380;2024-01-16T05:12:12;93366.44;;;0.56;100.00
39301;BME280;25019;42.626;23.380;2024-01-16T05:14:38;93434.69;;;0.99;100.00
39301;BME280;25019;42.626;23.380;2024-01-16T05:17:04;93411.50;;;0.77;100.00
39301;BME280;25019;42.626;23.380;2024-01-16T05:19:30;93470.72;;;0.97;100.00
39301;BME280;25019;42.626;23.380;2024-01-16T05:21:56;93476.50;;;1.06;100.00
39301;BME280;25019;42.626;23.380;2024-01-16T05:24:21;93471.28;;;0.99;100.00
39301;BME280;25019;42.626;23.380;2024-01-16T05:26:47;93411.81;;;0.62;100.00
39301;BME280;25019;42.626;23.380;2024-01-16T05:29:13;93424.91;;;0.55;100.00
39301;BME280;25019;42.626;23.380;2024-01-16T05:31:42;93363.50;;;0.07;100.00
39301;BME280;25019;42.626;23.380;2024-01-16T05:34:09;93486.41;;;0.97;100.00
39301;BME280;25019;42.626;23.380;2024-01-16T05:36:34;93508.66;;;1.06;100.00
39301;BME280;25019;42.626;23.380;2024-01-16T05:39:00;93510.69;;;1.04;100.00
39301;BME280;25019;42.626;23.380;2024-01-16T05:41:26;93460.75;;;0.80;100.00
39301;BME280;25019;42.626;23.380;2024-01-16T05:43:52;93455.41;;;0.68;100.00
39301;BME280;25019;42.626;23.380;2024-01-16T05:46:18;93487.44;;;0.89;100.00
39301;BME280;25019;42.626;23.380;2024-01-16T05:48:44;93505.88;;;1.01;100.00
39301;BME280;25019;42.626;23.380;2024-01-16T05:51:10;93518.00;;;0.95;100.00
39301;BME280;25019;42.626;23.380;2024-01-16T05:53:35;93528.63;;;1.00;100.00
39301;BME280;25019;42.626;23.380;2024-01-16T05:56:01;93441.69;;;0.34;100.00
39301;BME280;25019;42.626;23.380;2024-01-16T05:58:27;93523.06;;;0.83;100.00
39301;BME280;25019;42.626;23.380;2024-01-16T06:00:53;93489.22;;;0.56;100.00
39301;BME280;25019;42.626;23.380;2024-01-16T06:03:18;93584.63;;;1.18;100.00
39301;BME280;25019;42.626;23.380;2024-01-16T06:05:44;93592.72;;;1.16;100.00
39301;BME280;25019;42.626;23.380;2024-01-16T06:08:10;93531.94;;;0.82;100.00
39301;BME280;25019;42.626;23.380;2024-01-16T06:10:35;93555.22;;;0.91;100.00
39301;BME280;25019;42.626;23.380;2024-01-16T06:13:01;93610.34;;;1.28;100.00
39301;BME280;25019;42.626;23.380;2024-01-16T06:15:27;93623.50;;;1.53;100.00
39301;BME280;25019;42.626;23.380;2024-01-16T06:17:53;93613.81;;;1.54;100.00
39301;BME280;25019;42.626;23.380;2024-01-16T06:20:18;93621.03;;;1.58;100.00
39301;BME280;25019;42.626;23.380;2024-01-16T06:22:45;93634.00;;;1.78;100.00
39301;BME280;25019;42.626;23.380;2024-01-16T06:25:11;93655.91;;;1.84;100.00
39301;BME280;25019;42.626;23.380;2024-01-16T06:27:36;93646.03;;;1.86;100.00
39301;BME280;25019;42.626;23.380;2024-01-16T06:30:02;93624.97;;;1.42;100.00
39301;BME280;25019;42.626;23.380;2024-01-16T06:32:29;93658.75;;;1.51;100.00
39301;BME280;25019;42.626;23.380;2024-01-16T06:34:54;93645.91;;;1.42;100.00
39301;BME280;25019;42.626;23.380;2024-01-16T06:37:20;93673.06;;;1.41;100.00
39301;BME280;25019;42.626;23.380;2024-01-16T06:39:46;93612.16;;;0.88;100.00
39301;BME280;25019;42.626;23.380;2024-01-16T06:42:12;93631.28;;;0.82;100.00
39301;BME280;25019;42.626;23.380;2024-01-16T06:44:38;93695.03;;;1.40;100.00
39301;BME280;25019;42.626;23.380;2024-01-16T06:47:03;93714.34;;;1.78;100.00
39301;BME280;25019;42.626;23.380;2024-01-16T06:49:29;93710.66;;;1.92;100.00
39301;BME280;25019;42.626;23.380;2024-01-16T06:51:55;93705.63;;;1.91;100.00
39301;BME280;25019;42.626;23.380;2024-01-16T06:54:20;93711.00;;;1.64;100.00
39301;BME280;25019;42.626;23.380;2024-01-16T06:56:47;93724.38;;;1.49;100.00
39301;BME280;25019;42.626;23.380;2024-01-16T06:59:14;93744.75;;;1.40;100.00
39301;BME280;25019;42.626;23.380;2024-01-16T07:01:41;93657.28;;;0.50;100.00
39301;BME280;25019;42.626;23.380;2024-01-16T07:04:07;93724.97;;;0.85;100.00
39301;BME280;25019;42.626;23.380;2024-01-16T07:06:32;93759.56;;;0.94;100.00
39301;BME280;25019;42.626;23.380;2024-01-16T07:08:58;93762.38;;;0.86;100.00
39301;BME280;25019;42.626;23.380;2024-01-16T07:11:24;93748.09;;;0.75;100.00
39301;BME280;25019;42.626;23.380;2024-01-16T07:13:49;93719.59;;;0.53;100.00
39301;BME280;25019;42.626;23.380;2024-01-16T07:16:15;93661.34;;;0.06;100.00
39301;BME280;25019;42.626;23.380;2024-01-16T07:18:41;93782.91;;;0.69;100.00
39301;BME280;25019;42.626;23.380;2024-01-16T07:21:24;93796.56;;;0.71;100.00
39301;BME280;25019;42.626;23.380;2024-01-16T07:23:50;93767.84;;;0.51;100.00
39301;BME280;25019;42.626;23.380;2024-01-16T07:26:16;93735.06;;;0.08;100.00
39301;BME280;25019;42.626;23.380;2024-01-16T07:28:42;93803.22;;;0.53;100.00
39301;BME280;25019;42.626;23.380;2024-01-16T07:31:07;93804.41;;;0.57;100.00
39301;BME280;25019;42.626;23.380;2024-01-16T07:33:35;93746.50;;;0.13;100.00
39301;BME280;25019;42.626;23.380;2024-01-16T07:36:01;93826.34;;;0.56;100.00
39301;BME280;25019;42.626;23.380;2024-01-16T07:38:27;93799.38;;;0.42;100.00
39301;BME280;25019;42.626;23.380;2024-01-16T07:40:53;93694.44;;;-0.28;100.00
39301;BME280;25019;42.626;23.380;2024-01-16T07:43:18;93768.63;;;0.31;100.00
39301;BME280;25019;42.626;23.380;2024-01-16T07:45:44;93802.00;;;0.56;100.00
39301;BME280;25019;42.626;23.380;2024-01-16T07:48:09;93794.59;;;0.53;100.00
39301;BME280;25019;42.626;23.380;2024-01-16T07:50:36;93821.91;;;0.77;100.00
39301;BME280;25019;42.626;23.380;2024-01-16T07:53:02;93742.72;;;0.29;100.00
39301;BME280;25019;42.626;23.380;2024-01-16T07:55:27;93824.13;;;0.80;100.00
39301;BME280;25019;42.626;23.380;2024-01-16T07:57:53;93838.81;;;0.81;100.00
39301;BME280;25019;42.626;23.380;2024-01-16T08:00:19;93745.91;;;0.18;100.00
39301;BME280;25019;42.626;23.380;2024-01-16T08:02:45;93858.91;;;0.87;100.00
39301;BME280;25019;42.626;23.380;2024-01-16T08:05:11;93860.94;;;0.85;100.00
39301;BME280;25019;42.626;23.380;2024-01-16T08:07:36;93767.81;;;0.10;100.00
39301;BME280;25019;42.626;23.380;2024-01-16T08:10:02;93883.66;;;0.71;100.00
39301;BME280;25019;42.626;23.380;2024-01-16T08:12:28;93831.94;;;0.40;100.00
39301;BME280;25019;42.626;23.380;2024-01-16T08:14:54;93883.06;;;0.89;100.00
39301;BME280;25019;42.626;23.380;2024-01-16T08:17:20;93891.50;;;0.92;100.00
39301;BME280;25019;42.626;23.380;2024-01-16T08:19:45;93815.06;;;0.42;100.00
39301;BME280;25019;42.626;23.380;2024-01-16T08:22:11;93880.63;;;0.88;100.00
39301;BME280;25019;42.626;23.380;2024-01-16T08:24:37;93854.69;;;0.59;100.00
39301;BME280;25019;42.626;23.380;2024-01-16T08:27:03;93907.19;;;0.92;100.00
39301;BME280;25019;42.626;23.380;2024-01-16T08:29:28;93919.06;;;1.01;100.00
39301;BME280;25019;42.626;23.380;2024-01-16T08:31:54;93904.19;;;1.01;100.00
39301;BME280;25019;42.626;23.380;2024-01-16T08:34:20;93897.34;;;1.00;100.00
39301;BME280;25019;42.626;23.380;2024-01-16T08:36:45;93927.13;;;1.19;100.00
39301;BME280;25019;42.626;23.380;2024-01-16T08:39:11;93923.47;;;1.14;100.00
39301;BME280;25019;42.626;23.380;2024-01-16T08:41:37;93939.78;;;1.29;100.00
39301;BME280;25019;42.626;23.380;2024-01-16T08:44:03;93880.44;;;0.83;100.00
39301;BME280;25019;42.626;23.380;2024-01-16T08:46:29;93952.28;;;1.27;100.00
39301;BME280;25019;42.626;23.380;2024-01-16T08:48:55;93965.75;;;1.24;100.00
39301;BME280;25019;42.626;23.380;2024-01-16T08:51:20;93892.09;;;0.67;100.00
39301;BME280;25019;42.626;23.380;2024-01-16T08:53:46;93952.03;;;0.95;100.00
39301;BME280;25019;42.626;23.380;2024-01-16T08:56:12;93977.97;;;0.90;100.00
39301;BME280;25019;42.626;23.380;2024-01-16T08:58:38;93957.06;;;0.77;100.00
39301;BME280;25019;42.626;23.380;2024-01-16T09:01:04;93936.69;;;0.58;100.00
39301;BME280;25019;42.626;23.380;2024-01-16T09:03:32;93970.72;;;0.79;100.00
39301;BME280;25019;42.626;23.380;2024-01-16T09:05:58;93905.88;;;0.34;100.00
39301;BME280;25019;42.626;23.380;2024-01-16T09:08:24;93936.47;;;0.47;100.00
39301;BME280;25019;42.626;23.380;2024-01-16T09:10:52;93921.56;;;0.34;100.00
39301;BME280;25019;42.626;23.380;2024-01-16T09:13:18;94002.34;;;0.97;100.00
39301;BME280;25019;42.626;23.380;2024-01-16T09:15:46;94002.56;;;1.02;100.00
39301;BME280;25019;42.626;23.380;2024-01-16T09:18:12;93953.22;;;0.72;100.00
39301;BME280;25019;42.626;23.380;2024-01-16T09:20:38;93889.03;;;0.50;100.00
39301;BME280;25019;42.626;23.380;2024-01-16T09:23:04;93943.38;;;0.88;100.00
39301;BME280;25019;42.626;23.380;2024-01-16T09:25:30;93965.94;;;1.16;100.00
39301;BME280;25019;42.626;23.380;2024-01-16T09:27:56;93997.16;;;1.38;100.00
39301;BME280;25019;42.626;23.380;2024-01-16T09:30:21;94004.19;;;1.44;100.00
39301;BME280;25019;42.626;23.380;2024-01-16T09:32:48;93997.56;;;1.41;100.00
39301;BME280;25019;42.626;23.380;2024-01-16T09:35:14;93929.50;;;0.94;100.00
39301;BME280;25019;42.626;23.380;2024-01-16T09:37:40;93928.72;;;1.00;100.00
39301;BME280;25019;42.626;23.380;2024-01-16T09:40:07;94011.66;;;1.81;100.00
39301;BME280;25019;42.626;23.380;2024-01-16T09:42:33;93916.63;;;1.33;100.00
39301;BME280;25019;42.626;23.380;2024-01-16T09:45:00;94025.94;;;1.78;100.00
39301;BME280;25019;42.626;23.380;2024-01-16T09:47:26;93946.03;;;1.28;100.00
39301;BME280;25019;42.626;23.380;2024-01-16T09:49:54;93955.88;;;1.33;100.00
39301;BME280;25019;42.626;23.380;2024-01-16T09:52:20;93968.75;;;1.48;100.00
39301;BME280;25019;42.626;23.380;2024-01-16T09:54:45;94020.88;;;1.97;100.00
39301;BME280;25019;42.626;23.380;2024-01-16T09:57:12;94012.03;;;1.91;100.00
39301;BME280;25019;42.626;23.380;2024-01-16T09:59:39;93997.53;;;1.75;100.00
39301;BME280;25019;42.626;23.380;2024-01-16T10:02:05;93999.75;;;1.78;100.00
39301;BME280;25019;42.626;23.380;2024-01-16T10:04:34;93995.53;;;1.77;100.00
39301;BME280;25019;42.626;23.380;2024-01-16T10:07:01;93980.44;;;1.66;100.00
39301;BME280;25019;42.626;23.380;2024-01-16T10:09:27;94021.91;;;1.89;100.00
39301;BME280;25019;42.626;23.380;2024-01-16T10:11:53;94014.88;;;1.69;100.00
39301;BME280;25019;42.626;23.380;2024-01-16T10:14:21;93946.63;;;1.37;100.00
39301;BME280;25019;42.626;23.380;2024-01-16T10:16:56;93953.66;;;1.63;100.00
39301;BME280;25019;42.626;23.380;2024-01-16T10:19:23;93949.81;;;1.66;100.00
39301;BME280;25019;42.626;23.380;2024-01-16T10:21:49;94017.06;;;1.99;100.00
39301;BME280;25019;42.626;23.380;2024-01-16T10:24:16;94026.50;;;2.14;100.00
39301;BME280;25019;42.626;23.380;2024-01-16T10:26:41;94010.22;;;1.91;100.00
39301;BME280;25019;42.626;23.380;2024-01-16T10:29:07;94007.34;;;2.13;100.00
39301;BME280;25019;42.626;23.380;2024-01-16T10:31:34;93916.03;;;1.44;100.00
39301;BME280;25019;42.626;23.380;2024-01-16T10:34:00;94023.50;;;2.10;100.00
39301;BME280;25019;42.626;23.380;2024-01-16T10:36:26;93934.56;;;1.49;100.00
39301;BME280;25019;42.626;23.380;2024-01-16T10:38:52;93977.16;;;2.04;100.00
39301;BME280;25019;42.626;23.380;2024-01-16T10:41:23;94037.50;;;2.49;100.00
39301;BME280;25019;42.626;23.380;2024-01-16T10:44:10;94021.59;;;2.37;100.00
39301;BME280;25019;42.626;23.380;2024-01-16T10:46:36;93982.59;;;2.09;100.00
39301;BME280;25019;42.626;23.380;2024-01-16T10:49:05;94013.22;;;2.08;100.00
39301;BME280;25019;42.626;23.380;2024-01-16T10:51:31;94032.34;;;2.16;100.00
39301;BME280;25019;42.626;23.380;2024-01-16T10:54:03;94048.00;;;2.49;100.00
39301;BME280;25019;42.626;23.380;2024-01-16T10:56:33;93977.25;;;2.36;100.00
39301;BME280;25019;42.626;23.380;2024-01-16T11:02:19;94048.16;;;2.61;100.00
39301;BME280;25019;42.626;23.380;2024-01-16T11:04:46;93970.00;;;2.38;100.00
39301;BME280;25019;42.626;23.380;2024-01-16T11:07:14;93989.22;;;2.70;100.00
39301;BME280;25019;42.626;23.380;2024-01-16T11:09:41;94024.59;;;2.93;97.95
39301;BME280;25019;42.626;23.380;2024-01-16T11:12:08;93960.03;;;2.53;97.22
39301;BME280;25019;42.626;23.380;2024-01-16T11:14:37;94043.69;;;3.07;95.77
39301;BME280;25019;42.626;23.380;2024-01-16T11:17:03;94044.53;;;3.08;96.53
39301;BME280;25019;42.626;23.380;2024-01-16T11:19:32;93956.72;;;2.78;96.10
39301;BME280;25019;42.626;23.380;2024-01-16T11:21:58;93986.06;;;3.26;94.89
39301;BME280;25019;42.626;23.380;2024-01-16T11:24:25;94039.03;;;3.73;90.96
39301;BME280;25019;42.626;23.380;2024-01-16T11:26:51;94038.25;;;3.73;89.01
39301;BME280;25019;42.626;23.380;2024-01-16T11:31:55;94052.38;;;3.47;88.80
39301;BME280;25019;42.626;23.380;2024-01-16T11:34:57;94046.16;;;3.66;88.65
39301;BME280;25019;42.626;23.380;2024-01-16T11:37:32;94054.53;;;3.82;88.45
39301;BME280;25019;42.626;23.380;2024-01-16T11:42:48;94043.31;;;3.93;90.48
39301;BME280;25019;42.626;23.380;2024-01-16T11:48:15;93931.91;;;3.57;89.19
39301;BME280;25019;42.626;23.380;2024-01-16T11:50:41;94030.84;;;4.32;89.46
39301;BME280;25019;42.626;23.380;2024-01-16T11:53:07;93977.63;;;3.74;90.87
39301;BME280;25019;42.626;23.380;2024-01-16T11:58:42;94060.53;;;4.14;89.91
39301;BME280;25019;42.626;23.380;2024-01-16T12:01:10;94056.53;;;3.86;90.60
39301;BME280;25019;42.626;23.380;2024-01-16T12:03:37;93994.84;;;3.38;91.85
39301;BME280;25019;42.626;23.380;2024-01-16T12:06:03;94070.19;;;3.95;90.61
39301;BME280;25019;42.626;23.380;2024-01-16T12:08:32;94062.91;;;3.72;91.91
39301;BME280;25019;42.626;23.380;2024-01-16T12:10:58;93998.91;;;3.09;91.01
39301;BME280;25019;42.626;23.380;2024-01-16T12:13:25;94080.38;;;3.21;92.72
39301;BME280;25019;42.626;23.380;2024-01-16T12:16:03;94031.34;;;2.76;94.27
39301;BME280;25019;42.626;23.380;2024-01-16T12:18:32;94023.69;;;2.74;94.56
39301;BME280;25019;42.626;23.380;2024-01-16T12:21:07;94094.84;;;3.37;94.43
39301;BME280;25019;42.626;23.380;2024-01-16T12:23:34;94017.56;;;2.94;93.12
39301;BME280;25019;42.626;23.380;2024-01-16T12:25:59;94088.34;;;3.39;93.91
39301;BME280;25019;42.626;23.380;2024-01-16T12:28:28;94099.44;;;3.48;94.73
39301;BME280;25019;42.626;23.380;2024-01-16T12:30:54;94079.22;;;3.49;94.39
39301;BME280;25019;42.626;23.380;2024-01-16T12:33:23;94021.97;;;2.93;94.12
39301;BME280;25019;42.626;23.380;2024-01-16T12:35:49;94024.41;;;2.95;93.59
39301;BME280;25019;42.626;23.380;2024-01-16T12:38:15;94061.13;;;2.95;93.23
39301;BME280;25019;42.626;23.380;2024-01-16T12:40:47;94093.00;;;3.05;95.03
39301;BME280;25019;42.626;23.380;2024-01-16T12:43:13;94098.44;;;3.04;95.02
39301;BME280;25019;42.626;23.380;2024-01-16T12:45:39;94106.63;;;2.75;95.38
39301;BME280;25019;42.626;23.380;2024-01-16T12:48:05;94114.63;;;2.80;95.89
39301;BME280;25019;42.626;23.380;2024-01-16T12:50:32;94132.56;;;2.97;96.30
39301;BME280;25019;42.626;23.380;2024-01-16T12:53:08;94112.25;;;2.79;96.28
39301;BME280;25019;42.626;23.380;2024-01-16T12:55:36;94124.16;;;2.75;98.17
39301;BME280;25019;42.626;23.380;2024-01-16T13:03:26;94087.84;;;2.78;96.23
39301;BME280;25019;42.626;23.380;2024-01-16T13:05:56;94038.13;;;2.38;96.74
39301;BME280;25019;42.626;23.380;2024-01-16T13:08:22;94050.22;;;2.46;97.02
39301;BME280;25019;42.626;23.380;2024-01-16T13:13:29;94096.47;;;2.85;95.11